Time;durP1;ratioP1;P1;durP2;ratioP2;P2;SDS_P1;SDS_P2;PMS_P1;PMS_P2;Temp;Humidity;BMP_temperature;BMP_pressure;BME280_temperature;BME280_humidity;BME280_pressure;Samples;Min_cycle;Max_cycle;Signal;HPM_P1;HPM_P2
2022/04/11 00:01:31;;;;;;;4.70;1.60;;;4.70;99.90;;;;;;5166324;28;20209;-46
2022/04/11 00:04:02;;;;;;;3.23;1.70;;;4.70;99.90;;;;;;5185570;28;20222;-46
2022/04/11 00:06:33;;;;;;;2.97;1.60;;;4.70;99.90;;;;;;5183998;28;20198;-46
2022/04/11 00:09:03;;;;;;;8.43;2.10;;;4.70;99.90;;;;;;5182588;28;20470;-48
2022/04/11 00:11:34;;;;;;;1.70;1.03;;;4.70;99.90;;;;;;5167523;28;20260;-47
2022/04/11 00:14:04;;;;;;;5.47;2.03;;;4.70;99.90;;;;;;5185411;28;20219;-46
2022/04/11 00:16:35;;;;;;;3.03;1.43;;;4.80;99.90;;;;;;5183820;28;20193;-49
2022/04/11 00:19:06;;;;;;;4.80;1.40;;;4.70;99.90;;;;;;5164578;28;20207;-46
2022/04/11 00:21:36;;;;;;;5.43;1.60;;;4.70;99.90;;;;;;5168358;28;20224;-46
2022/04/11 00:24:07;;;;;;;3.07;1.57;;;4.70;99.90;;;;;;5184506;28;20193;-46
2022/04/11 00:26:38;;;;;;;2.77;1.13;;;4.70;99.90;;;;;;5184916;28;20719;-48
2022/04/11 00:29:08;;;;;;;9.30;1.40;;;4.70;99.90;;;;;;5179928;28;20548;-46
2022/04/11 00:31:39;;;;;;;7.10;1.70;;;4.60;99.90;;;;;;5182674;28;20567;-46
2022/04/11 00:34:10;;;;;;;4.57;1.63;;;4.60;99.90;;;;;;5188944;28;20177;-48
2022/04/11 00:36:40;;;;;;;10.03;1.90;;;4.60;99.90;;;;;;5184315;28;20186;-47
2022/04/11 00:39:11;;;;;;;5.60;1.60;;;4.60;99.90;;;;;;5185163;28;20246;-46
2022/04/11 00:41:41;;;;;;;4.47;1.37;;;4.50;99.90;;;;;;5165684;28;20321;-46
2022/04/11 00:44:12;;;;;;;2.33;1.50;;;4.40;99.90;;;;;;5190693;28;20184;-46
2022/04/11 00:46:42;;;;;;;2.30;1.50;;;4.40;99.90;;;;;;5185546;28;20192;-46
2022/04/11 00:49:13;;;;;;;2.20;1.60;;;4.30;99.90;;;;;;5186859;28;20211;-46
2022/04/11 00:51:44;;;;;;;5.57;1.20;;;4.20;99.90;;;;;;5185886;28;20212;-47
2022/04/11 00:54:15;;;;;;;5.77;1.47;;;4.20;99.90;;;;;;5188970;28;20213;-47
2022/04/11 00:56:46;;;;;;;5.10;1.90;;;4.10;99.90;;;;;;5174398;28;20541;-47
2022/04/11 00:59:18;;;;;;;8.33;1.87;;;4.10;99.90;;;;;;5188785;28;20199;-46
2022/04/11 01:01:49;;;;;;;7.07;2.13;;;4.00;99.90;;;;;;5196080;28;20453;-46
2022/04/11 01:04:27;;;;;;;2.20;1.27;;;4.00;99.90;;;;;;5187533;28;20443;-47
2022/04/11 01:06:57;;;;;;;7.10;1.60;;;3.90;99.90;;;;;;5188279;28;20556;-47
2022/04/11 01:09:28;;;;;;;7.37;1.90;;;3.90;99.90;;;;;;5186686;28;20467;-45
2022/04/11 01:11:58;;;;;;;3.73;1.77;;;3.80;99.90;;;;;;5187809;28;20204;-46
2022/04/11 01:14:29;;;;;;;5.03;1.37;;;3.80;99.90;;;;;;5185616;28;20192;-46
2022/04/11 01:16:59;;;;;;;11.07;1.37;;;3.70;99.90;;;;;;5183708;28;20184;-47
2022/04/11 01:19:30;;;;;;;5.30;1.53;;;3.70;99.90;;;;;;5183268;28;20271;-47
2022/04/11 01:22:00;;;;;;;4.13;2.60;;;3.70;99.90;;;;;;5187049;28;20645;-45
2022/04/11 01:24:32;;;;;;;8.03;1.80;;;3.70;99.90;;;;;;5187639;28;20188;-45
2022/04/11 01:27:03;;;;;;;8.03;2.47;;;3.60;99.90;;;;;;5169879;28;20501;-47
2022/04/11 01:29:33;;;;;;;3.67;1.60;;;3.50;99.90;;;;;;5182759;28;20470;-47
2022/04/11 01:32:04;;;;;;;4.67;1.57;;;3.50;99.90;;;;;;5171096;28;20451;-48
2022/04/11 01:34:35;;;;;;;7.30;1.43;;;3.40;99.90;;;;;;5166763;28;20176;-46
2022/04/11 01:37:05;;;;;;;6.90;2.00;;;3.50;99.90;;;;;;5188004;28;20427;-45
2022/04/11 01:39:37;;;;;;;2.07;1.40;;;3.40;99.90;;;;;;5171534;28;20183;-47
2022/04/11 01:42:07;;;;;;;2.73;1.43;;;3.40;99.90;;;;;;5186941;28;20266;-46
2022/04/11 01:44:38;;;;;;;4.90;1.90;;;3.40;99.90;;;;;;5186234;28;20439;-47
2022/04/11 01:47:08;;;;;;;3.83;1.73;;;3.30;99.90;;;;;;5188872;28;20185;-50
2022/04/11 01:49:39;;;;;;;10.50;1.70;;;3.30;99.90;;;;;;5186700;28;20616;-45
2022/04/11 01:52:10;;;;;;;3.63;1.60;;;3.30;99.90;;;;;;5186249;28;20247;-48
2022/04/11 01:54:40;;;;;;;7.37;1.80;;;3.30;99.90;;;;;;5187261;28;20184;-46
2022/04/11 01:57:11;;;;;;;10.60;2.27;;;3.30;99.90;;;;;;5188147;28;20222;-47
2022/04/11 01:59:41;;;;;;;9.90;2.50;;;3.20;99.90;;;;;;5183262;28;20184;-45
2022/04/11 02:02:12;;;;;;;8.03;2.37;;;3.20;99.90;;;;;;5169204;28;20509;-46
2022/04/11 02:04:43;;;;;;;3.43;1.80;;;3.20;99.90;;;;;;5168666;28;20184;-46
2022/04/11 02:07:13;;;;;;;4.53;1.67;;;3.10;99.90;;;;;;5184899;28;20713;-46
2022/04/11 02:09:44;;;;;;;1.70;1.60;;;3.10;99.90;;;;;;5169096;28;20534;-46
2022/04/11 02:12:14;;;;;;;5.10;1.70;;;3.10;99.90;;;;;;5166303;28;20198;-46
2022/04/11 02:14:45;;;;;;;3.90;1.40;;;3.10;99.90;;;;;;5184280;28;20619;-46
2022/04/11 02:17:15;;;;;;;4.90;1.37;;;3.10;99.90;;;;;;5188657;28;20180;-47
2022/04/11 02:19:46;;;;;;;5.37;2.00;;;3.00;99.90;;;;;;5181745;28;20216;-45
2022/04/11 02:22:16;;;;;;;3.23;1.43;;;3.00;99.90;;;;;;5186056;28;20240;-46
2022/04/11 02:24:48;;;;;;;6.23;2.13;;;3.00;99.90;;;;;;5185960;28;20185;-46
2022/04/11 02:27:18;;;;;;;2.97;1.77;;;3.00;99.90;;;;;;5185321;28;20654;-47
2022/04/11 02:29:49;;;;;;;3.50;2.00;;;3.00;99.90;;;;;;5183667;28;20475;-45
2022/04/11 02:32:19;;;;;;;2.70;1.70;;;2.90;99.90;;;;;;5185785;28;20211;-46
2022/04/11 02:34:50;;;;;;;4.50;1.60;;;2.90;99.90;;;;;;5186677;28;20192;-46
2022/04/11 02:37:21;;;;;;;2.90;2.00;;;2.90;99.90;;;;;;5171164;28;20208;-46
2022/04/11 02:39:51;;;;;;;6.47;1.93;;;2.90;99.90;;;;;;5168239;28;20239;-46
2022/04/11 02:42:26;;;;;;;6.43;2.20;;;2.90;99.90;;;;;;5184390;28;20491;-45
2022/04/11 02:44:57;;;;;;;8.00;2.33;;;2.80;99.90;;;;;;5186942;28;20221;-46
2022/04/11 02:47:28;;;;;;;1.90;1.70;;;2.80;99.90;;;;;;5187500;28;20462;-47
2022/04/11 02:49:58;;;;;;;12.30;2.27;;;2.80;99.90;;;;;;5187471;28;20695;-47
2022/04/11 02:52:29;;;;;;;3.30;1.67;;;2.80;99.90;;;;;;5182181;28;20205;-46
2022/04/11 02:55:00;;;;;;;10.83;2.50;;;2.80;99.90;;;;;;5177924;28;20173;-46
2022/04/11 02:57:31;;;;;;;8.73;2.37;;;2.80;99.90;;;;;;5186723;28;20177;-47
2022/04/11 03:00:04;;;;;;;7.80;1.83;;;2.90;99.90;;;;;;5186480;28;20746;-45
2022/04/11 03:02:34;;;;;;;2.60;1.40;;;2.70;99.90;;;;;;5175422;28;20589;-46
2022/04/11 03:05:05;;;;;;;5.63;2.07;;;2.70;99.90;;;;;;5167005;28;20413;-45
2022/04/11 03:07:36;;;;;;;3.13;1.70;;;2.60;99.90;;;;;;5184638;28;20184;-46
2022/04/11 03:10:08;;;;;;;5.50;1.90;;;2.70;99.90;;;;;;5169130;28;20473;-47
2022/04/11 03:12:38;;;;;;;7.47;1.77;;;2.60;99.90;;;;;;5186353;28;20459;-49
2022/04/11 03:15:10;;;;;;;18.97;2.30;;;2.60;99.90;;;;;;5186689;28;20523;-47
2022/04/11 03:17:40;;;;;;;3.47;1.50;;;2.60;99.90;;;;;;5186776;28;21138;-47
2022/04/11 03:20:11;;;;;;;4.40;1.53;;;2.60;99.90;;;;;;5187613;28;20560;-46
2022/04/11 03:22:41;;;;;;;3.80;1.73;;;2.50;99.90;;;;;;5186465;28;20274;-46
2022/04/11 03:25:12;;;;;;;3.67;1.83;;;2.50;99.90;;;;;;5186528;28;20195;-46
2022/04/11 03:27:42;;;;;;;7.93;2.00;;;2.50;99.90;;;;;;5171924;28;20708;-46
2022/04/11 03:30:13;;;;;;;8.63;2.03;;;2.50;99.90;;;;;;5185126;28;20567;-46
2022/04/11 03:32:43;;;;;;;2.23;2.03;;;2.50;99.90;;;;;;5175505;28;20192;-46
2022/04/11 03:35:14;;;;;;;3.80;1.50;;;2.50;99.90;;;;;;5187197;28;20586;-47
2022/04/11 03:37:44;;;;;;;1.87;1.73;;;2.50;99.90;;;;;;5185085;28;20184;-46
2022/04/11 03:40:15;;;;;;;2.10;1.80;;;2.40;99.90;;;;;;5173657;28;20193;-46
2022/04/11 03:42:45;;;;;;;6.47;2.10;;;2.40;99.90;;;;;;5176766;28;20263;-47
2022/04/11 03:45:16;;;;;;;8.30;1.60;;;2.30;99.90;;;;;;5184735;28;20196;-46
2022/04/11 03:47:47;;;;;;;2.00;1.80;;;2.30;99.90;;;;;;5184344;28;20188;-46
2022/04/11 03:50:17;;;;;;;8.70;1.90;;;2.30;99.90;;;;;;5167628;28;20672;-47
2022/04/11 03:52:48;;;;;;;1.83;1.73;;;2.30;99.90;;;;;;5178818;28;20466;-47
2022/04/11 03:55:18;;;;;;;3.77;1.70;;;2.40;99.90;;;;;;5178095;28;20622;-46
2022/04/11 03:57:49;;;;;;;4.37;2.73;;;2.30;99.90;;;;;;5184139;28;20183;-46
2022/04/11 04:00:20;;;;;;;11.10;2.40;;;2.30;99.90;;;;;;5184476;28;20180;-47
2022/04/11 04:02:50;;;;;;;4.60;1.50;;;2.30;99.90;;;;;;5185808;28;20263;-46
2022/04/11 04:05:21;;;;;;;6.50;1.90;;;2.30;99.90;;;;;;5175157;28;20188;-47
2022/04/11 04:07:51;;;;;;;2.10;1.70;;;2.30;99.90;;;;;;5185521;28;20247;-46
2022/04/11 04:10:26;;;;;;;5.23;1.53;;;2.30;99.90;;;;;;5182289;28;20669;-47
2022/04/11 04:12:57;;;;;;;3.77;2.07;;;2.40;99.90;;;;;;5185051;28;20198;-46
2022/04/11 04:15:28;;;;;;;1.60;1.50;;;2.30;99.90;;;;;;5163626;28;21034;-46
2022/04/11 04:17:58;;;;;;;4.97;1.63;;;2.30;99.90;;;;;;5184059;28;20433;-47
2022/04/11 04:20:29;;;;;;;7.77;2.40;;;2.30;99.90;;;;;;5167226;28;20637;-48
2022/04/11 04:22:59;;;;;;;3.67;2.23;;;2.30;99.90;;;;;;5174175;28;20676;-47
2022/04/11 04:25:35;;;;;;;9.17;2.23;;;2.40;99.90;;;;;;5184020;28;20680;-46
2022/04/11 04:28:06;;;;;;;2.37;2.17;;;2.30;99.90;;;;;;5183795;28;20245;-46
2022/04/11 04:30:36;;;;;;;3.97;2.10;;;2.30;99.90;;;;;;5167763;28;20447;-46
2022/04/11 04:33:07;;;;;;;9.33;2.33;;;2.40;99.90;;;;;;5183148;28;20199;-47
2022/04/11 04:35:38;;;;;;;4.90;2.57;;;2.40;99.90;;;;;;5172652;28;20192;-48
2022/04/11 04:38:09;;;;;;;15.07;2.67;;;2.40;99.90;;;;;;5184903;28;20645;-45
2022/04/11 04:40:39;;;;;;;7.10;1.93;;;2.50;99.90;;;;;;5181361;28;20554;-46
2022/04/11 04:43:10;;;;;;;5.43;1.80;;;2.50;99.90;;;;;;5177845;28;20204;-47
2022/04/11 04:45:40;;;;;;;8.50;2.63;;;2.60;99.90;;;;;;5166362;28;20619;-47
2022/04/11 04:48:11;;;;;;;4.60;2.50;;;2.60;99.90;;;;;;5184192;28;20223;-45
2022/04/11 04:50:41;;;;;;;8.33;2.53;;;2.70;99.90;;;;;;5182489;28;20613;-47
2022/04/11 04:53:12;;;;;;;8.87;1.87;;;2.80;99.90;;;;;;5185855;28;20201;-46
2022/04/11 04:55:42;;;;;;;5.73;1.97;;;2.80;99.90;;;;;;5185282;28;20188;-47
2022/04/11 04:58:13;;;;;;;5.60;2.33;;;2.90;99.90;;;;;;5185905;28;20207;-45
2022/04/11 05:00:43;;;;;;;4.27;2.77;;;2.90;99.90;;;;;;5185908;28;20181;-45
2022/04/11 05:03:14;;;;;;;1.97;1.53;;;3.00;99.90;;;;;;5177115;28;20743;-45
2022/04/11 05:05:44;;;;;;;2.60;2.40;;;3.50;99.90;;;;;;5175792;28;20200;-47
2022/04/11 05:08:15;;;;;;;3.93;2.33;;;3.80;99.90;;;;;;5173663;28;20262;-46
2022/04/11 05:10:45;;;;;;;19.90;9.73;;;4.10;99.90;;;;;;5166382;28;20205;-47
2022/04/11 05:13:16;;;;;;;4.80;2.60;;;5.20;99.90;;;;;;5185254;28;20629;-46
2022/04/11 05:15:47;;;;;;;2.50;2.30;;;6.80;99.90;;;;;;5183660;28;20273;-47
2022/04/11 05:18:17;;;;;;;2.23;2.03;;;8.80;99.90;;;;;;5173964;28;20195;-46
2022/04/11 05:20:48;;;;;;;5.03;2.20;;;10.80;97.10;;;;;;5182298;28;20443;-46
2022/04/11 05:23:19;;;;;;;2.10;1.97;;;12.70;79.20;;;;;;5183640;28;20704;-47
2022/04/11 05:25:49;;;;;;;3.07;1.30;;;13.60;61.40;;;;;;5186445;28;20263;-47
2022/04/11 05:28:20;;;;;;;8.70;2.33;;;13.90;59.40;;;;;;5187431;28;20522;-47
2022/04/11 05:30:50;;;;;;;4.07;1.87;;;13.80;54.50;;;;;;5185896;28;20185;-47
2022/04/11 05:33:21;;;;;;;4.30;2.13;;;14.50;54.10;;;;;;5185281;28;20211;-47
2022/04/11 05:35:52;;;;;;;5.87;2.30;;;14.70;51.60;;;;;;5185737;28;20181;-47
2022/04/11 05:38:23;;;;;;;4.00;1.90;;;14.20;50.40;;;;;;5185959;28;20192;-48
2022/04/11 05:40:56;;;;;;;5.37;2.20;;;14.30;52.00;;;;;;5166392;28;20435;-48
2022/04/11 05:43:26;;;;;;;2.30;1.73;;;15.50;50.60;;;;;;5185550;28;20200;-47
2022/04/11 05:45:57;;;;;;;4.93;2.43;;;16.90;46.20;;;;;;5184112;28;20512;-47
2022/04/11 05:48:30;;;;;;;11.63;2.00;;;18.10;43.90;;;;;;5188182;28;20247;-46
2022/04/11 05:51:01;;;;;;;5.50;1.80;;;18.90;41.00;;;;;;5174410;28;20173;-46
2022/04/11 05:53:31;;;;;;;3.40;1.93;;;19.70;39.10;;;;;;5186271;28;20466;-46
2022/04/11 05:56:02;;;;;;;7.00;1.80;;;20.40;38.10;;;;;;5186359;28;20665;-46
2022/04/11 05:58:32;;;;;;;1.70;1.60;;;21.20;36.50;;;;;;5167539;28;20195;-47
2022/04/11 06:01:03;;;;;;;1.90;1.80;;;21.70;34.90;;;;;;5183069;28;20208;-48
2022/04/11 06:03:37;;;;;;;6.00;1.87;;;22.20;33.80;;;;;;5166568;28;20250;-48
2022/04/11 06:06:07;;;;;;;4.70;1.90;;;22.90;32.70;;;;;;5187255;28;20184;-49
2022/04/11 06:08:38;;;;;;;2.87;2.00;;;23.10;31.70;;;;;;5186465;28;20462;-48
2022/04/11 06:11:08;;;;;;;6.33;2.00;;;23.10;31.20;;;;;;5186967;28;20208;-47
2022/04/11 06:13:43;;;;;;;2.97;2.17;;;23.30;30.70;;;;;;5187922;28;20193;-46
2022/04/11 06:16:13;;;;;;;1.77;1.67;;;23.40;29.90;;;;;;5186042;28;20556;-46
2022/04/11 06:18:44;;;;;;;3.33;1.80;;;23.40;29.90;;;;;;5186647;28;20432;-47
2022/04/11 06:21:14;;;;;;;5.40;1.90;;;23.40;30.30;;;;;;5186815;28;20616;-46
2022/04/11 06:23:45;;;;;;;4.47;2.40;;;23.60;29.70;;;;;;5165926;28;20540;-47
2022/04/11 06:26:15;;;;;;;1.70;1.53;;;23.00;29.10;;;;;;5168582;28;20208;-48
2022/04/11 06:28:46;;;;;;;3.90;2.17;;;23.40;29.20;;;;;;5187625;28;20571;-49
2022/04/11 06:31:16;;;;;;;11.53;2.00;;;23.70;28.60;;;;;;5187091;28;20180;-47
2022/04/11 06:33:47;;;;;;;1.50;1.40;;;23.60;28.30;;;;;;5169086;28;20215;-48
2022/04/11 06:36:18;;;;;;;3.33;1.70;;;23.60;27.20;;;;;;5185847;28;20184;-46
2022/04/11 06:38:48;;;;;;;3.80;1.83;;;23.00;27.80;;;;;;5186415;28;20627;-48
2022/04/11 06:41:19;;;;;;;2.83;1.73;;;23.30;28.20;;;;;;5187833;28;20303;-47
2022/04/11 06:43:49;;;;;;;1.83;1.63;;;23.90;27.20;;;;;;5182545;28;20337;-46
2022/04/11 06:46:20;;;;;;;2.00;1.90;;;24.10;27.80;;;;;;5186636;28;20619;-47
2022/04/11 06:48:50;;;;;;;3.67;2.00;;;24.80;27.10;;;;;;5167669;28;20216;-46
2022/04/11 06:51:20;;;;;;;7.10;2.07;;;24.80;26.30;;;;;;5187370;28;20537;-46
2022/04/11 06:53:51;;;;;;;3.13;1.80;;;24.40;25.50;;;;;;5188476;28;20184;-48
2022/04/11 06:56:21;;;;;;;6.37;1.93;;;22.90;25.70;;;;;;5187748;28;20215;-47
2022/04/11 06:58:52;;;;;;;2.43;1.33;;;22.60;26.70;;;;;;5187558;28;20198;-46
2022/04/11 07:01:23;;;;;;;4.03;1.33;;;22.90;26.90;;;;;;5187374;28;20275;-46
2022/04/11 07:03:53;;;;;;;6.07;1.37;;;23.20;26.10;;;;;;5167569;28;20199;-46
2022/04/11 07:06:24;;;;;;;1.87;1.73;;;22.80;26.30;;;;;;5187808;28;20184;-48
2022/04/11 07:08:54;;;;;;;2.70;1.30;;;22.60;26.10;;;;;;5188842;28;20621;-46
2022/04/11 07:11:25;;;;;;;2.20;1.67;;;21.70;26.30;;;;;;5186686;28;20192;-47
2022/04/11 07:13:55;;;;;;;5.57;1.40;;;21.90;26.90;;;;;;5188470;28;20188;-47
2022/04/11 07:16:26;;;;;;;2.10;1.87;;;21.50;27.30;;;;;;5183223;28;20200;-48
2022/04/11 07:18:57;;;;;;;4.30;1.97;;;22.20;27.50;;;;;;5184069;28;20195;-48
2022/04/11 07:21:27;;;;;;;1.63;1.53;;;22.30;26.20;;;;;;5188147;28;20189;-47
2022/04/11 07:23:58;;;;;;;4.27;1.50;;;22.30;26.80;;;;;;5184667;28;20279;-47
2022/04/11 07:26:28;;;;;;;6.17;1.43;;;22.40;26.10;;;;;;5188224;28;20273;-48
2022/04/11 07:28:59;;;;;;;3.57;1.90;;;21.40;26.10;;;;;;5186828;28;20220;-48
2022/04/11 07:31:30;;;;;;;8.00;1.80;;;21.40;26.70;;;;;;5185746;28;20188;-46
2022/04/11 07:34:01;;;;;;;2.10;1.37;;;21.70;28.10;;;;;;5186773;28;20188;-48
2022/04/11 07:36:32;;;;;;;4.20;1.83;;;23.00;26.80;;;;;;5184209;28;20196;-45
2022/04/11 07:39:02;;;;;;;4.77;1.60;;;23.80;26.00;;;;;;5186205;28;20419;-47
2022/04/11 07:41:33;;;;;;;1.33;1.23;;;24.10;25.30;;;;;;5186973;28;20208;-45
2022/04/11 07:44:04;;;;;;;2.30;1.40;;;24.40;25.40;;;;;;5166803;28;20193;-46
2022/04/11 07:46:34;;;;;;;9.30;1.47;;;23.90;24.80;;;;;;5160942;28;20200;-46
2022/04/11 07:49:05;;;;;;;1.33;1.23;;;23.50;24.90;;;;;;5181517;28;20351;-46
2022/04/11 07:51:36;;;;;;;3.70;1.60;;;22.80;24.80;;;;;;5184827;28;20206;-47
2022/04/11 07:54:06;;;;;;;2.80;1.47;;;22.70;26.10;;;;;;5184843;28;20188;-46
2022/04/11 07:56:37;;;;;;;5.37;1.50;;;22.80;25.60;;;;;;5163854;28;20251;-47
2022/04/11 07:59:08;;;;;;;5.43;1.60;;;22.30;25.70;;;;;;5167818;28;20641;-47
2022/04/11 08:01:38;;;;;;;2.17;1.07;;;22.80;26.30;;;;;;5163852;28;20394;-46
2022/04/11 08:04:09;;;;;;;6.40;2.23;;;23.40;25.50;;;;;;5183986;28;20204;-50
2022/04/11 08:06:40;;;;;;;3.90;1.30;;;23.20;25.00;;;;;;5181948;28;20660;-47
2022/04/11 08:09:11;;;;;;;1.53;1.30;;;23.20;24.70;;;;;;5184940;28;20204;-48
2022/04/11 08:11:41;;;;;;;2.20;1.60;;;23.60;24.80;;;;;;5181631;28;20591;-47
2022/04/11 08:14:12;;;;;;;1.90;1.20;;;23.60;24.30;;;;;;5181348;28;20191;-46
2022/04/11 08:16:42;;;;;;;3.40;1.30;;;23.10;24.00;;;;;;5183986;28;20184;-47
2022/04/11 08:19:13;;;;;;;1.40;1.30;;;21.40;24.80;;;;;;5182931;28;20188;-48
2022/04/11 08:21:44;;;;;;;1.67;0.80;;;20.80;25.60;;;;;;5185766;28;20235;-48
2022/04/11 08:24:14;;;;;;;4.17;1.50;;;19.60;26.20;;;;;;5184448;28;20288;-50
2022/04/11 08:26:45;;;;;;;1.90;1.03;;;18.80;27.10;;;;;;5183754;28;20184;-48
2022/04/11 08:29:17;;;;;;;1.17;1.10;;;18.20;27.80;;;;;;5181631;28;20222;-46
2022/04/11 08:31:48;;;;;;;3.00;1.30;;;17.20;28.70;;;;;;5183369;28;20223;-48
2022/04/11 08:34:18;;;;;;;3.23;1.50;;;16.10;29.80;;;;;;5167390;28;20443;-47
2022/04/11 08:36:49;;;;;;;0.97;0.80;;;15.30;30.70;;;;;;5181610;28;20543;-45
2022/04/11 08:39:19;;;;;;;3.07;1.20;;;14.30;32.10;;;;;;5165274;28;20192;-51
2022/04/11 08:41:52;;;;;;;1.07;0.80;;;13.90;33.10;;;;;;5182210;28;20243;-48
2022/04/11 08:44:23;;;;;;;5.43;0.80;;;13.60;33.50;;;;;;5186108;28;20192;-49
2022/04/11 08:47:01;;;;;;;6.00;1.20;;;13.10;33.60;;;;;;5186452;28;20447;-48
2022/04/11 08:49:31;;;;;;;3.60;1.27;;;12.70;34.80;;;;;;5184630;28;20471;-47
2022/04/11 08:52:04;;;;;;;5.30;1.37;;;12.30;35.00;;;;;;5163351;28;20530;-47
2022/04/11 08:54:36;;;;;;;1.17;0.97;;;11.80;36.30;;;;;;5184593;28;20180;-47
2022/04/11 08:57:07;;;;;;;2.60;1.33;;;11.70;36.50;;;;;;5183319;28;20573;-48
2022/04/11 08:59:38;;;;;;;11.03;1.50;;;11.10;36.70;;;;;;5162204;28;20451;-50
2022/04/11 09:02:12;;;;;;;2.83;1.30;;;11.10;37.90;;;;;;5168977;28;20463;-48
2022/04/11 09:04:55;;;;;;;3.10;0.93;;;11.10;38.50;;;;;;5184479;28;20195;-49
2022/04/11 09:07:25;;;;;;;4.07;1.50;;;11.10;38.60;;;;;;5161017;28;21104;-47
2022/04/11 09:10:01;;;;;;;2.20;1.00;;;11.10;38.60;;;;;;5162621;28;20536;-48
2022/04/11 09:13:13;;;;;;;4.80;1.13;;;11.20;39.00;;;;;;5164707;28;20287;-48
2022/04/11 09:15:47;;;;;;;5.27;3.97;;;11.10;38.10;;;;;;5172494;28;20435;-47
2022/04/11 09:18:18;;;;;;;8.63;1.60;;;11.10;38.80;;;;;;5184177;28;20538;-48
2022/04/11 09:20:51;;;;;;;1.80;1.13;;;11.20;38.50;;;;;;5183971;28;20526;-48
2022/04/11 09:23:22;;;;;;;2.40;1.30;;;11.30;38.60;;;;;;5185787;28;20226;-49
2022/04/11 09:25:52;;;;;;;3.33;1.10;;;11.50;38.70;;;;;;5167627;28;20435;-48
2022/04/11 09:28:23;;;;;;;2.00;1.03;;;11.70;38.10;;;;;;5181622;28;20975;-49
2022/04/11 09:30:53;;;;;;;3.40;0.67;;;11.40;35.40;;;;;;5182764;28;20264;-50
2022/04/11 09:33:24;;;;;;;3.43;1.00;;;11.30;34.70;;;;;;5186707;28;20231;-48
2022/04/11 09:35:55;;;;;;;1.40;1.23;;;11.10;34.40;;;;;;5180607;28;20180;-49
2022/04/11 09:38:25;;;;;;;1.00;1.00;;;10.90;33.90;;;;;;5182937;28;20193;-47
2022/04/11 09:40:56;;;;;;;1.07;0.63;;;10.90;33.60;;;;;;5183774;28;20180;-49
2022/04/11 09:43:29;;;;;;;3.10;2.10;;;10.90;34.30;;;;;;5181328;28;20644;-49
2022/04/11 09:46:02;;;;;;;1.23;1.07;;;11.00;34.70;;;;;;5182476;28;20462;-49
2022/04/11 09:48:37;;;;;;;1.60;1.17;;;10.90;34.30;;;;;;5185710;28;20443;-50
2022/04/11 09:51:15;;;;;;;2.73;1.10;;;10.90;34.40;;;;;;5183635;28;20439;-50
2022/04/11 09:53:46;;;;;;;2.00;1.87;;;10.80;34.50;;;;;;5167139;28;20442;-51
2022/04/11 09:56:18;;;;;;;16.60;8.03;;;10.90;35.00;;;;;;5184836;28;20439;-50
2022/04/11 09:58:49;;;;;;;7.20;3.30;;;10.90;34.80;;;;;;5182998;28;20193;-52
2022/04/11 10:01:23;;;;;;;4.23;1.43;;;11.10;35.10;;;;;;5182565;28;20457;-50
2022/04/11 10:03:54;;;;;;;2.73;1.00;;;11.10;35.20;;;;;;5165217;28;21494;-49
2022/04/11 10:06:25;;;;;;;1.03;1.03;;;11.30;35.80;;;;;;5185465;28;20628;-50
2022/04/11 10:08:57;;;;;;;3.50;1.17;;;11.40;34.70;;;;;;5187495;28;20646;-49
2022/04/11 10:11:28;;;;;;;2.43;0.90;;;11.90;34.70;;;;;;5179372;28;20188;-49
2022/04/11 10:13:59;;;;;;;0.90;0.90;;;12.20;33.30;;;;;;5184256;28;20582;-50
2022/04/11 10:16:29;;;;;;;7.60;4.40;;;12.50;33.30;;;;;;5184100;28;20211;-49
2022/04/11 10:19:01;;;;;;;2.70;2.23;;;12.50;32.60;;;;;;5185948;28;20431;-50
2022/04/11 10:21:33;;;;;;;2.20;1.37;;;12.30;32.70;;;;;;5169123;28;20185;-52
2022/04/11 10:24:06;;;;;;;1.33;1.33;;;12.30;33.60;;;;;;5184864;28;20435;-51
2022/04/11 10:26:45;;;;;;;8.40;6.53;;;12.30;32.00;;;;;;5184571;28;20435;-51
2022/04/11 10:29:32;;;;;;;3.13;2.03;;;12.30;33.00;;;;;;5163585;28;20466;-51
2022/04/11 10:32:13;;;;;;;3.23;1.90;;;12.30;32.80;;;;;;5183282;28;20458;-49
2022/04/11 10:34:49;;;;;;;9.30;6.20;;;12.40;32.80;;;;;;5177461;28;20474;-50
2022/04/11 10:37:26;;;;;;;23.03;12.50;;;12.70;32.90;;;;;;5169455;28;20823;-49
2022/04/11 10:40:15;;;;;;;4.47;2.03;;;12.80;32.10;;;;;;5160850;28;20477;-49
2022/04/11 10:43:11;;;;;;;2.70;2.00;;;13.10;32.30;;;;;;5184473;28;20801;-52
2022/04/11 10:45:58;;;;;;;2.93;1.07;;;13.50;31.80;;;;;;5177797;28;21022;-53
2022/04/11 10:48:58;;;;;;;2.20;1.47;;;13.80;31.60;;;;;;5183287;28;20801;-51
2022/04/11 10:51:29;;;;;;;3.20;2.23;;;13.90;31.00;;;;;;5183121;28;20432;-50
2022/04/11 10:54:21;;;;;;;3.13;2.33;;;14.00;30.80;;;;;;5181121;28;20423;-49
2022/04/11 10:56:53;;;;;;;2.60;1.10;;;13.60;30.00;;;;;;5183945;28;20644;-49
2022/04/11 10:59:28;;;;;;;1.30;1.30;;;13.00;29.80;;;;;;5178422;28;20435;-50
2022/04/11 11:01:59;;;;;;;4.07;1.63;;;13.00;30.70;;;;;;5183481;28;20458;-50
2022/04/11 11:04:30;;;;;;;4.20;2.00;;;12.90;31.60;;;;;;5183436;28;20844;-48
2022/04/11 11:07:24;;;;;;;2.43;0.93;;;13.00;31.00;;;;;;5181777;28;20208;-50
2022/04/11 11:09:59;;;;;;;1.63;1.27;;;13.30;31.00;;;;;;5178705;28;21008;-49
2022/04/11 11:12:31;;;;;;;0.83;0.83;;;13.60;30.80;;;;;;5181887;28;20447;-49
2022/04/11 11:15:25;;;;;;;16.30;8.37;;;13.40;30.50;;;;;;5159250;28;20466;-52
2022/04/11 11:17:57;;;;;;;14.40;8.13;;;13.30;30.40;;;;;;5181215;28;20442;-50
2022/04/11 11:20:32;;;;;;;10.00;7.23;;;13.10;30.00;;;;;;5161954;28;20589;-50
2022/04/11 11:23:25;;;;;;;9.23;5.63;;;13.00;30.60;;;;;;5180492;28;20540;-51
2022/04/11 11:26:08;;;;;;;3.53;2.43;;;13.30;30.50;;;;;;5178821;28;20447;-51
2022/04/11 11:28:45;;;;;;;3.93;1.60;;;13.40;29.90;;;;;;5177842;28;20441;-50
2022/04/11 11:31:17;;;;;;;1.83;1.10;;;13.30;30.50;;;;;;5165357;28;20605;-51
2022/04/11 11:33:50;;;;;;;6.37;1.40;;;13.20;30.10;;;;;;5180018;28;20983;-49
2022/04/11 11:36:28;;;;;;;13.07;6.43;;;13.00;30.50;;;;;;5179413;28;20607;-49
2022/04/11 11:38:59;;;;;;;5.87;4.37;;;13.30;30.90;;;;;;5177870;28;20600;-50
2022/04/11 11:41:30;;;;;;;4.63;2.80;;;13.60;30.20;;;;;;5161922;28;20447;-50
2022/04/11 11:44:00;;;;;;;1.73;1.40;;;13.80;30.10;;;;;;5182498;28;20188;-52
2022/04/11 11:46:31;;;;;;;4.57;1.40;;;14.20;30.00;;;;;;5167527;28;20188;-51
2022/04/11 11:49:01;;;;;;;2.00;1.03;;;14.40;30.10;;;;;;5181915;28;20208;-48
2022/04/11 11:51:32;;;;;;;5.47;1.80;;;14.50;30.40;;;;;;5185496;28;20180;-50
2022/04/11 11:54:02;;;;;;;2.57;0.90;;;14.30;30.20;;;;;;5182684;28;20470;-51
2022/04/11 11:56:44;;;;;;;1.80;1.33;;;14.30;30.00;;;;;;5183658;28;20180;-50
2022/04/11 11:59:15;;;;;;;1.17;1.10;;;14.10;29.30;;;;;;5180868;28;20184;-49
2022/04/11 12:04:18;;;;;;;1.53;1.10;;;14.00;29.70;;;;;;5164537;28;20773;-49
2022/04/11 12:04:43;;;;;;;2.40;1.23;;;14.30;31.00;;;;;;5180055;28;20808;-50
2022/04/11 12:07:18;;;;;;;5.90;1.70;;;14.30;31.00;;;;;;5181967;28;20439;-52
2022/04/11 12:09:49;;;;;;;1.83;1.67;;;14.40;31.60;;;;;;5181387;28;20222;-51
2022/04/11 12:12:20;;;;;;;7.50;1.50;;;14.50;31.50;;;;;;5178188;28;20462;-50
2022/04/11 12:15:01;;;;;;;8.70;2.33;;;14.00;31.60;;;;;;5177853;28;21075;-49
2022/04/11 12:17:43;;;;;;;3.60;1.50;;;14.30;32.30;;;;;;5178252;28;20311;-51
2022/04/11 12:20:19;;;;;;;3.17;1.30;;;14.80;31.40;;;;;;5174902;28;20480;-50
2022/04/11 12:23:14;;;;;;;10.63;6.10;;;15.20;30.40;;;;;;5177564;28;20589;-48
2022/04/11 12:25:57;;;;;;;4.13;2.10;;;15.10;29.80;;;;;;5180822;28;20436;-48
2022/04/11 12:28:28;;;;;;;7.93;2.93;;;14.90;29.70;;;;;;5167225;28;20442;-50
2022/04/11 12:31:02;;;;;;;1.63;1.50;;;14.70;29.90;;;;;;5181011;28;21078;-50
2022/04/11 12:33:35;;;;;;;4.83;1.67;;;14.10;30.00;;;;;;5183190;28;20427;-49
2022/04/11 12:36:26;;;;;;;1.20;1.20;;;14.10;30.80;;;;;;5184055;28;20497;-49
2022/04/11 12:39:09;;;;;;;2.93;1.00;;;14.20;30.80;;;;;;5180748;28;20458;-51
2022/04/11 12:41:40;;;;;;;1.00;1.00;;;14.40;30.80;;;;;;5164954;28;20447;-48
2022/04/11 12:44:10;;;;;;;2.93;1.10;;;14.80;30.30;;;;;;5179330;28;20438;-49
2022/04/11 12:47:02;;;;;;;9.53;4.10;;;14.80;30.10;;;;;;5182688;28;20676;-49
2022/04/11 12:49:47;;;;;;;2.30;1.80;;;14.90;30.60;;;;;;5177691;28;20208;-50
2022/04/11 12:52:20;;;;;;;13.80;6.07;;;15.10;30.60;;;;;;5174629;28;20474;-49
2022/04/11 12:54:59;;;;;;;3.07;2.30;;;15.30;30.60;;;;;;5178054;28;20431;-49
2022/04/11 12:57:33;;;;;;;1.77;1.60;;;15.60;30.60;;;;;;5174030;28;20561;-50
2022/04/11 13:00:19;;;;;;;8.70;1.27;;;15.80;30.50;;;;;;5164184;28;20527;-48
2022/04/11 13:02:52;;;;;;;1.87;1.57;;;15.90;30.60;;;;;;5158439;28;20459;-50
2022/04/11 13:05:24;;;;;;;1.50;1.40;;;15.10;30.00;;;;;;5182323;28;20423;-50
2022/04/11 13:07:55;;;;;;;4.57;1.40;;;14.70;30.90;;;;;;5178826;28;20443;-50
2022/04/11 13:10:27;;;;;;;4.87;1.60;;;14.30;31.00;;;;;;5162319;28;20463;-51
2022/04/11 13:12:58;;;;;;;1.87;1.77;;;14.00;31.10;;;;;;5181516;28;20283;-49
2022/04/11 13:15:30;;;;;;;2.57;1.10;;;13.60;31.60;;;;;;5161908;28;20519;-51
2022/04/11 13:20:49;;;;;;;2.20;2.10;;;13.30;32.50;;;;;;5180814;28;20434;-50